Time;durP1;ratioP1;P1;durP2;ratioP2;P2;SDS_P1;SDS_P2;PMS_P1;PMS_P2;Temp;Humidity;BMP_temperature;BMP_pressure;BME280_temperature;BME280_humidity;BME280_pressure;Samples;Min_cycle;Max_cycle;Signal;HPM_P1;HPM_P2
2020/12/25 00:01:32;;;;;;;30.02;16.55;;;2.80;94.40;;;;;;5090042;28;20024;-79
2020/12/25 00:03:59;;;;;;;28.23;15.70;;;2.80;94.30;;;;;;5073664;28;20028;-80
2020/12/25 00:06:32;;;;;;;36.63;17.77;;;2.80;94.30;;;;;;5073519;28;20070;-81
2020/12/25 00:08:57;;;;;;;29.67;16.95;;;2.70;94.30;;;;;;5091456;28;20043;-80
2020/12/25 00:11:29;;;;;;;33.25;18.92;;;2.60;94.30;;;;;;5073396;28;20028;-80
2020/12/25 00:13:55;;;;;;;43.15;18.95;;;2.60;94.50;;;;;;5089526;28;20481;-80
2020/12/25 00:16:27;;;;;;;35.80;19.10;;;2.60;94.50;;;;;;5090229;28;20042;-79
2020/12/25 00:18:53;;;;;;;29.42;17.23;;;2.60;94.60;;;;;;5073236;28;20024;-79
2020/12/25 00:21:19;;;;;;;31.15;16.30;;;2.50;94.50;;;;;;5089704;28;20073;-80
2020/12/25 00:23:45;;;;;;;35.35;16.02;;;2.50;94.60;;;;;;5089948;28;20028;-81
2020/12/25 00:26:11;;;;;;;28.15;14.35;;;2.40;94.60;;;;;;5089930;28;20052;-81
2020/12/25 00:28:36;;;;;;;26.27;13.88;;;2.30;94.60;;;;;;5090966;28;20058;-79
2020/12/25 00:31:02;;;;;;;29.88;15.38;;;2.30;94.70;;;;;;5089374;28;20383;-81
2020/12/25 00:33:28;;;;;;;28.63;16.00;;;2.20;94.70;;;;;;5089627;28;20063;-80
2020/12/25 00:35:53;;;;;;;26.80;14.30;;;2.20;94.70;;;;;;5089294;28;20036;-79
2020/12/25 00:38:19;;;;;;;34.47;16.83;;;2.20;94.70;;;;;;5072156;28;20039;-79
2020/12/25 00:40:45;;;;;;;30.95;14.02;;;2.10;94.70;;;;;;5072113;28;20470;-79
2020/12/25 00:43:10;;;;;;;27.35;14.32;;;2.10;94.80;;;;;;5089117;28;20047;-80
2020/12/25 00:45:37;;;;;;;29.95;14.93;;;2.00;94.90;;;;;;5088682;28;20036;-79
2020/12/25 00:48:03;;;;;;;36.20;17.10;;;2.00;94.90;;;;;;5088959;28;20024;-80
2020/12/25 00:50:28;;;;;;;29.55;16.58;;;2.00;94.90;;;;;;5088526;28;20493;-79
2020/12/25 00:52:54;;;;;;;33.60;17.13;;;2.00;95.00;;;;;;5072614;28;20032;-79
2020/12/25 00:55:20;;;;;;;32.50;15.60;;;2.00;95.00;;;;;;5089999;28;20035;-81
2020/12/25 00:57:45;;;;;;;37.70;16.20;;;2.00;95.00;;;;;;5072671;28;20470;-79
2020/12/25 01:00:11;;;;;;;35.08;15.82;;;2.10;95.10;;;;;;5071667;28;20029;-81
2020/12/25 01:02:36;;;;;;;31.35;14.90;;;2.10;95.20;;;;;;5071408;28;20043;-79
2020/12/25 01:05:02;;;;;;;33.90;15.35;;;2.20;95.40;;;;;;5071470;28;20035;-79
2020/12/25 01:07:29;;;;;;;31.05;13.98;;;2.30;95.50;;;;;;5088055;28;20044;-80
2020/12/25 01:09:55;;;;;;;29.05;15.98;;;2.40;95.50;;;;;;5088576;28;20032;-80
2020/12/25 01:12:20;;;;;;;36.10;16.85;;;2.50;95.50;;;;;;5072744;28;20039;-79
2020/12/25 01:14:46;;;;;;;39.42;16.20;;;2.60;95.40;;;;;;5091884;28;20502;-79
2020/12/25 01:17:11;;;;;;;24.48;13.15;;;2.70;95.30;;;;;;5088515;28;20391;-82
2020/12/25 01:19:37;;;;;;;25.60;13.43;;;2.70;95.20;;;;;;5071038;28;20381;-82
2020/12/25 01:22:03;;;;;;;27.10;13.65;;;2.70;95.20;;;;;;5087872;28;20035;-79
2020/12/25 01:24:28;;;;;;;29.98;15.50;;;2.70;95.20;;;;;;5071119;28;20141;-78
2020/12/25 01:26:54;;;;;;;38.88;18.02;;;2.60;95.20;;;;;;5070947;28;20487;-81
2020/12/25 01:29:20;;;;;;;37.40;17.52;;;2.60;95.10;;;;;;5087566;28;20386;-80
2020/12/25 01:31:46;;;;;;;35.65;18.35;;;2.50;95.10;;;;;;5071105;28;20115;-80
2020/12/25 01:34:11;;;;;;;25.38;11.52;;;2.50;95.20;;;;;;5071334;28;20024;-80
2020/12/25 01:36:37;;;;;;;24.35;8.90;;;2.50;95.30;;;;;;5087800;28;20112;-80
2020/12/25 01:39:03;;;;;;;19.75;9.48;;;2.50;95.40;;;;;;5087671;28;20024;-81
2020/12/25 01:41:29;;;;;;;21.77;9.30;;;2.60;95.60;;;;;;5087680;28;20041;-82
2020/12/25 01:43:54;;;;;;;21.73;8.77;;;2.80;95.60;;;;;;5088659;28;20035;-79
2020/12/25 01:46:20;;;;;;;25.77;12.50;;;2.90;95.60;;;;;;5070369;28;20065;-79
2020/12/25 01:48:46;;;;;;;24.42;8.60;;;3.00;95.50;;;;;;5087943;28;20028;-80
2020/12/25 01:51:14;;;;;;;14.65;7.18;;;3.00;95.40;;;;;;5089464;28;20207;-81
2020/12/25 01:53:42;;;;;;;14.70;7.32;;;3.10;95.40;;;;;;5075543;28;20122;-79
2020/12/25 01:56:08;;;;;;;14.85;7.80;;;3.20;95.40;;;;;;5091708;28;20035;-79
2020/12/25 01:58:36;;;;;;;13.65;6.47;;;3.20;95.30;;;;;;5091174;28;20039;-79
2020/12/25 02:01:02;;;;;;;12.07;6.10;;;3.30;95.30;;;;;;5089451;28;20020;-81
2020/12/25 02:03:28;;;;;;;16.17;7.22;;;3.30;95.20;;;;;;5087391;28;20020;-81
2020/12/25 02:05:54;;;;;;;13.63;7.45;;;3.30;95.10;;;;;;5087617;28;20047;-81
2020/12/25 02:08:19;;;;;;;17.27;7.68;;;3.30;95.00;;;;;;5071616;28;20028;-80
2020/12/25 02:10:45;;;;;;;17.75;6.32;;;3.30;95.00;;;;;;5089896;28;20439;-80
2020/12/25 02:13:11;;;;;;;14.32;7.25;;;3.20;95.00;;;;;;5075734;28;20028;-78
2020/12/25 02:15:37;;;;;;;17.85;6.70;;;3.10;95.00;;;;;;5074521;28;20386;-79
2020/12/25 02:18:04;;;;;;;19.63;8.02;;;3.10;95.00;;;;;;5092381;28;20063;-78
2020/12/25 02:20:29;;;;;;;18.52;7.55;;;3.00;95.00;;;;;;5091829;28;20024;-78
2020/12/25 02:22:56;;;;;;;13.00;7.28;;;3.00;94.90;;;;;;5073387;28;20606;-78
2020/12/25 02:25:21;;;;;;;15.73;8.10;;;3.00;94.90;;;;;;5088295;28;20089;-78
2020/12/25 02:27:47;;;;;;;21.10;8.02;;;3.00;94.90;;;;;;5072537;28;20032;-80
2020/12/25 02:30:14;;;;;;;19.90;8.70;;;3.00;95.00;;;;;;5088685;28;20039;-79
2020/12/25 02:32:40;;;;;;;19.40;7.53;;;3.00;95.10;;;;;;5090210;28;20032;-79
2020/12/25 02:35:06;;;;;;;17.92;8.48;;;3.10;95.30;;;;;;5091654;28;20129;-79
2020/12/25 02:37:32;;;;;;;18.35;8.27;;;3.10;95.20;;;;;;5089837;28;20475;-78
2020/12/25 02:39:58;;;;;;;20.80;9.45;;;3.10;95.10;;;;;;5089817;28;20019;-80
2020/12/25 02:42:24;;;;;;;18.98;9.48;;;3.20;95.00;;;;;;5088558;28;20518;-78
2020/12/25 02:44:49;;;;;;;16.10;8.38;;;3.20;94.90;;;;;;5070335;28;20156;-79
2020/12/25 02:47:15;;;;;;;16.55;8.05;;;3.10;94.80;;;;;;5087345;28;20377;-79
2020/12/25 02:49:41;;;;;;;18.67;7.43;;;3.10;94.80;;;;;;5088704;28;20042;-78
2020/12/25 02:52:06;;;;;;;20.67;8.48;;;3.00;94.80;;;;;;5087086;28;20141;-78
2020/12/25 02:54:32;;;;;;;17.05;7.78;;;2.90;94.80;;;;;;5070434;28;20055;-78
2020/12/25 02:57:01;;;;;;;16.75;8.40;;;2.90;94.90;;;;;;5086855;28;20024;-79
2020/12/25 02:59:27;;;;;;;19.08;8.30;;;2.80;95.00;;;;;;5088339;28;20020;-78
2020/12/25 03:01:53;;;;;;;17.95;8.38;;;2.80;95.00;;;;;;5070144;28;20567;-79
2020/12/25 03:04:19;;;;;;;16.35;8.25;;;2.70;95.00;;;;;;5088033;28;20043;-79
2020/12/25 03:06:45;;;;;;;24.08;10.65;;;2.70;95.10;;;;;;5086681;28;20028;-77
2020/12/25 03:09:12;;;;;;;24.48;9.73;;;2.70;95.10;;;;;;5086601;28;20100;-80
2020/12/25 03:11:38;;;;;;;22.75;9.98;;;2.70;95.20;;;;;;5088149;28;20481;-80
2020/12/25 03:14:04;;;;;;;22.45;9.88;;;2.70;95.30;;;;;;5087791;28;20028;-79
2020/12/25 03:16:30;;;;;;;22.02;8.95;;;2.60;95.30;;;;;;5092446;28;20447;-79
2020/12/25 03:18:56;;;;;;;22.45;8.27;;;2.60;95.30;;;;;;5092780;28;20031;-80
2020/12/25 03:21:23;;;;;;;21.70;8.45;;;2.60;95.60;;;;;;5091035;28;20020;-78
2020/12/25 03:23:49;;;;;;;22.48;7.35;;;2.60;95.40;;;;;;5090288;28;20027;-78
2020/12/25 03:26:15;;;;;;;15.90;7.72;;;2.70;95.50;;;;;;5090010;28;20135;-79
2020/12/25 03:28:41;;;;;;;18.90;8.65;;;2.70;95.60;;;;;;5091564;28;20032;-78
2020/12/25 03:31:07;;;;;;;17.42;8.10;;;2.70;95.60;;;;;;5091895;28;20016;-79
2020/12/25 03:33:32;;;;;;;18.33;7.93;;;2.80;95.60;;;;;;5095180;28;20500;-77
2020/12/25 03:35:58;;;;;;;14.05;7.70;;;2.90;95.60;;;;;;5095897;28;20028;-77
2020/12/25 03:38:24;;;;;;;13.43;7.07;;;2.90;95.60;;;;;;5078037;28;20020;-79
2020/12/25 03:40:50;;;;;;;14.18;6.78;;;3.00;95.60;;;;;;5077654;28;20024;-80
2020/12/25 03:43:16;;;;;;;13.85;6.90;;;3.10;95.60;;;;;;5092965;28;20162;-79
2020/12/25 03:45:41;;;;;;;15.75;7.80;;;3.10;95.60;;;;;;5075485;28;20512;-79
2020/12/25 03:48:07;;;;;;;12.50;6.82;;;3.10;95.50;;;;;;5075731;28;20062;-78
2020/12/25 03:50:32;;;;;;;15.23;7.40;;;3.20;95.50;;;;;;5093182;28;20028;-77
2020/12/25 03:52:58;;;;;;;13.82;6.88;;;3.30;95.50;;;;;;5075510;28;20414;-78
2020/12/25 03:55:24;;;;;;;14.52;7.30;;;3.30;95.50;;;;;;5091383;28;20028;-78
2020/12/25 03:57:50;;;;;;;15.18;7.95;;;3.40;95.50;;;;;;5089899;28;20036;-81
2020/12/25 04:00:15;;;;;;;14.93;6.88;;;3.50;95.50;;;;;;5091782;28;20059;-78
2020/12/25 04:02:41;;;;;;;12.93;7.50;;;3.50;95.50;;;;;;5090194;28;20070;-79
2020/12/25 04:05:07;;;;;;;13.60;6.35;;;3.60;95.60;;;;;;5089726;28;20119;-79
2020/12/25 04:07:32;;;;;;;16.20;7.32;;;3.70;95.60;;;;;;5089497;28;20039;-78
2020/12/25 04:09:58;;;;;;;14.32;6.20;;;3.70;95.50;;;;;;5091115;28;20024;-80
2020/12/25 04:12:24;;;;;;;14.65;6.80;;;3.80;95.50;;;;;;5090378;28;20039;-81
2020/12/25 04:14:49;;;;;;;23.15;12.30;;;3.90;95.50;;;;;;5091596;28;20031;-79
2020/12/25 04:17:15;;;;;;;33.45;16.35;;;3.90;95.40;;;;;;5091368;28;20063;-81
2020/12/25 04:19:41;;;;;;;27.23;14.52;;;3.90;95.30;;;;;;5073511;28;20115;-77
2020/12/25 04:22:07;;;;;;;16.63;8.68;;;4.00;95.30;;;;;;5075082;28;20120;-78
2020/12/25 04:24:33;;;;;;;17.02;7.70;;;4.00;95.20;;;;;;5092178;28;20028;-77
2020/12/25 04:26:58;;;;;;;11.70;6.70;;;4.00;95.20;;;;;;5091088;28;20430;-79
2020/12/25 04:29:24;;;;;;;21.55;7.60;;;4.00;95.10;;;;;;5074216;28;20430;-79
2020/12/25 04:31:50;;;;;;;16.00;7.13;;;4.00;95.10;;;;;;5091408;28;20024;-77
2020/12/25 04:34:15;;;;;;;20.15;8.10;;;4.00;95.10;;;;;;5090677;28;20336;-78
2020/12/25 04:36:41;;;;;;;16.20;6.72;;;4.00;95.00;;;;;;5075657;28;20034;-79
2020/12/25 04:39:07;;;;;;;13.20;5.95;;;4.00;95.00;;;;;;5077330;28;20412;-79
2020/12/25 04:41:34;;;;;;;15.18;5.97;;;4.00;95.00;;;;;;5094008;28;20090;-83
2020/12/25 04:44:01;;;;;;;13.20;5.53;;;4.00;95.00;;;;;;5075168;28;20025;-80
2020/12/25 04:46:27;;;;;;;23.20;6.97;;;3.90;95.00;;;;;;5092354;28;20024;-77
2020/12/25 04:48:53;;;;;;;14.43;6.22;;;3.90;94.90;;;;;;5093234;28;20482;-78
2020/12/25 04:51:19;;;;;;;16.58;5.97;;;3.80;94.90;;;;;;5093686;28;20039;-77
2020/12/25 04:53:50;;;;;;;15.85;6.45;;;3.80;95.00;;;;;;5075847;28;20036;-79
2020/12/25 04:56:18;;;;;;;11.73;5.88;;;3.80;95.00;;;;;;5094458;28;20039;-79
2020/12/25 04:58:44;;;;;;;13.57;5.85;;;3.80;95.00;;;;;;5076058;28;20024;-83
2020/12/25 05:01:11;;;;;;;22.33;6.10;;;3.80;95.00;;;;;;5074137;28;20024;-80
2020/12/25 05:03:41;;;;;;;15.35;5.47;;;3.80;95.00;;;;;;5092060;28;20085;-81
2020/12/25 05:06:14;;;;;;;14.07;5.60;;;3.70;95.00;;;;;;5092205;28;20024;-81
2020/12/25 05:08:44;;;;;;;19.58;5.18;;;3.70;95.00;;;;;;5074701;28;20546;-78
2020/12/25 05:11:10;;;;;;;;;;;3.70;95.10;;;;;;5091696;28;20028;-80
2020/12/25 05:13:50;;;;;;;9.52;4.65;;;3.70;95.10;;;;;;5092848;28;19958;-78
2020/12/25 05:16:16;;;;;;;;;;;3.60;95.00;;;;;;5092693;28;20024;-79
2020/12/25 05:18:47;;;;;;;15.38;5.47;;;3.60;95.10;;;;;;5092302;28;19904;-78
2020/12/25 05:21:15;;;;;;;8.25;4.85;;;3.60;95.00;;;;;;5092704;28;20401;-78
2020/12/25 05:23:42;;;;;;;13.93;5.28;;;3.60;95.10;;;;;;5075202;28;20547;-79
2020/12/25 05:26:10;;;;;;;9.98;4.40;;;3.60;95.20;;;;;;5093035;28;20048;-79
2020/12/25 05:28:48;;;;;;;9.43;4.90;;;3.60;95.30;;;;;;5093080;28;20024;-81
2020/12/25 05:31:15;;;;;;;12.35;4.63;;;3.60;95.40;;;;;;5091560;28;20031;-80
2020/12/25 05:33:41;;;;;;;16.20;5.18;;;3.60;95.40;;;;;;5093455;28;20107;-80
2020/12/25 05:36:12;;;;;;;13.27;5.55;;;3.60;95.40;;;;;;5093087;28;20559;-79
2020/12/25 05:38:47;;;;;;;21.42;5.65;;;3.60;95.50;;;;;;5091701;28;20374;-79
2020/12/25 05:41:14;;;;;;;9.95;4.85;;;3.60;95.50;;;;;;5091866;28;20024;-79
2020/12/25 05:43:45;;;;;;;16.58;5.85;;;3.70;95.50;;;;;;5075310;28;20051;-79
2020/12/25 05:46:13;;;;;;;8.60;4.80;;;3.70;95.50;;;;;;5092000;28;20467;-81
2020/12/25 05:48:39;;;;;;;10.90;4.88;;;3.80;95.60;;;;;;5091707;28;20028;-80
2020/12/25 05:51:10;;;;;;;14.00;5.55;;;3.80;95.60;;;;;;5075881;28;20043;-79
2020/12/25 05:53:36;;;;;;;13.55;7.20;;;3.80;95.60;;;;;;5090910;28;20031;-81
2020/12/25 05:56:03;;;;;;;17.48;5.78;;;3.80;95.50;;;;;;5072951;28;20141;-79
2020/12/25 05:58:31;;;;;;;11.30;5.03;;;3.90;95.50;;;;;;5075624;28;20467;-80
2020/12/25 06:00:57;;;;;;;16.45;5.57;;;3.90;95.60;;;;;;5091722;28;20020;-80
2020/12/25 06:03:24;;;;;;;12.23;5.43;;;3.90;95.60;;;;;;5090740;28;20066;-82
2020/12/25 06:05:52;;;;;;;13.70;6.10;;;3.90;95.60;;;;;;5090402;28;20029;-82
2020/12/25 06:08:25;;;;;;;9.10;5.30;;;4.00;95.60;;;;;;5089803;28;20065;-81
2020/12/25 06:10:59;;;;;;;21.00;5.97;;;4.00;95.60;;;;;;5091987;28;20024;-80
2020/12/25 06:13:31;;;;;;;12.13;5.72;;;4.00;95.60;;;;;;5091450;28;20444;-80
2020/12/25 06:15:57;;;;;;;14.25;4.97;;;4.00;95.60;;;;;;5092384;28;20482;-80
2020/12/25 06:18:42;;;;;;;20.52;6.75;;;4.00;95.60;;;;;;5091341;28;20035;-79
2020/12/25 06:21:16;;;;;;;16.23;6.85;;;4.00;95.70;;;;;;5092287;28;20060;-80
2020/12/25 06:23:44;;;;;;;17.75;6.57;;;4.00;95.60;;;;;;5092106;28;20016;-79
2020/12/25 06:26:09;;;;;;;18.70;7.75;;;4.10;95.70;;;;;;5091128;28;20102;-81
2020/12/25 06:28:41;;;;;;;25.75;7.05;;;4.10;95.70;;;;;;5088193;28;20024;-82
2020/12/25 06:31:48;;;;;;;12.00;6.05;;;4.20;95.70;;;;;;5091151;28;20428;-82
2020/12/25 06:34:15;;;;;;;15.60;6.13;;;4.10;95.70;;;;;;5088896;28;20124;-80
2020/12/25 06:36:45;;;;;;;21.92;5.80;;;4.10;95.60;;;;;;5092209;28;20054;-82
2020/12/25 06:39:13;;;;;;;14.00;6.10;;;4.10;95.60;;;;;;5090326;28;20032;-79
2020/12/25 06:41:39;;;;;;;24.63;7.53;;;4.10;95.70;;;;;;5090806;28;20031;-79
2020/12/25 06:44:07;;;;;;;12.68;5.43;;;4.10;95.70;;;;;;5091599;28;20036;-82
2020/12/25 06:46:36;;;;;;;15.00;6.18;;;4.10;95.80;;;;;;5091084;28;20028;-80
2020/12/25 06:49:08;;;;;;;12.38;5.78;;;4.10;95.70;;;;;;5094457;28;20031;-78
2020/12/25 06:51:41;;;;;;;14.57;5.85;;;4.10;95.80;;;;;;5097643;28;20039;-79
2020/12/25 06:54:22;;;;;;;12.75;5.82;;;4.10;95.80;;;;;;5095759;28;20039;-80
2020/12/25 06:56:52;;;;;;;18.00;7.15;;;4.00;95.80;;;;;;5093270;28;20028;-80
2020/12/25 06:59:18;;;;;;;;;;;4.00;95.80;;;;;;5078199;28;20032;-80
2020/12/25 07:01:46;;;;;;;12.50;6.15;;;4.00;95.80;;;;;;5091601;28;19904;-82
2020/12/25 07:04:32;;;;;;;17.50;5.97;;;4.00;95.80;;;;;;5092585;28;20114;-82
2020/12/25 07:07:06;;;;;;;16.88;6.32;;;4.00;95.80;;;;;;5094756;28;20028;-82
2020/12/25 07:09:40;;;;;;;16.65;5.50;;;3.90;95.80;;;;;;5094513;28;20045;-79
2020/12/25 07:12:13;;;;;;;13.18;5.93;;;3.90;95.90;;;;;;5092494;28;20047;-80
2020/12/25 07:14:39;;;;;;;12.32;6.00;;;3.90;96.00;;;;;;5092137;28;20020;-79
2020/12/25 07:17:05;;;;;;;12.10;5.80;;;3.80;96.10;;;;;;5075950;28;20077;-81
2020/12/25 07:19:33;;;;;;;12.90;6.05;;;3.80;96.10;;;;;;5074983;28;20035;-80
2020/12/25 07:22:00;;;;;;;16.00;6.60;;;3.80;96.20;;;;;;5094024;28;20070;-82
2020/12/25 07:24:26;;;;;;;14.63;6.30;;;3.80;96.30;;;;;;5076774;28;20052;-81
2020/12/25 07:26:55;;;;;;;14.88;5.47;;;3.80;96.30;;;;;;5093120;28;20056;-80
2020/12/25 07:29:21;;;;;;;22.67;5.30;;;3.80;96.40;;;;;;5093909;28;20035;-79
2020/12/25 07:31:52;;;;;;;20.13;5.55;;;3.90;96.40;;;;;;5077922;28;20036;-79
2020/12/25 07:34:23;;;;;;;12.23;5.18;;;3.90;96.40;;;;;;5078067;28;20154;-81
2020/12/25 07:36:51;;;;;;;10.90;5.70;;;3.90;96.40;;;;;;5093600;28;20081;-80
2020/12/25 07:39:17;;;;;;;17.02;6.15;;;3.90;96.50;;;;;;5094205;28;20066;-81
2020/12/25 07:41:44;;;;;;;15.63;5.80;;;4.00;96.50;;;;;;5092751;28;20024;-80
2020/12/25 07:44:09;;;;;;;11.48;5.38;;;4.00;96.50;;;;;;5093438;28;20020;-81
2020/12/25 07:46:37;;;;;;;14.95;5.07;;;4.00;96.50;;;;;;5093793;28;20027;-80
2020/12/25 07:49:04;;;;;;;12.90;5.13;;;4.00;96.50;;;;;;5092958;28;20035;-81
2020/12/25 07:51:31;;;;;;;12.60;5.72;;;4.00;96.60;;;;;;5073089;28;20443;-84
2020/12/25 07:53:58;;;;;;;13.32;5.13;;;4.10;96.60;;;;;;5093044;28;20032;-80
2020/12/25 07:56:30;;;;;;;13.68;4.63;;;4.10;96.60;;;;;;5091886;28;20091;-80
2020/12/25 07:58:56;;;;;;;12.13;5.80;;;4.10;96.60;;;;;;5091410;28;20051;-82
2020/12/25 08:01:24;;;;;;;10.75;5.05;;;4.10;96.70;;;;;;5090368;28;20035;-81
2020/12/25 08:03:52;;;;;;;11.27;4.80;;;4.10;96.70;;;;;;5092302;28;20025;-82
2020/12/25 08:06:23;;;;;;;11.43;5.13;;;4.20;96.70;;;;;;5074645;28;20073;-79
2020/12/25 08:08:53;;;;;;;12.18;4.80;;;4.20;96.70;;;;;;5092606;28;20028;-83
2020/12/25 08:11:20;;;;;;;11.50;4.68;;;4.20;96.80;;;;;;5090432;28;20068;-82
2020/12/25 08:13:49;;;;;;;10.38;4.88;;;4.20;96.80;;;;;;5090694;28;20020;-80
2020/12/25 08:16:15;;;;;;;11.60;4.10;;;4.30;96.80;;;;;;5091904;28;20031;-81
2020/12/25 08:18:41;;;;;;;13.65;4.75;;;4.30;96.80;;;;;;5091701;28;20031;-80
2020/12/25 08:21:06;;;;;;;9.93;4.75;;;4.30;96.80;;;;;;5092823;28;20024;-80
2020/12/25 08:23:36;;;;;;;18.85;4.00;;;4.40;96.80;;;;;;5091319;28;20035;-81
2020/12/25 08:26:06;;;;;;;11.68;4.45;;;4.40;96.80;;;;;;5092358;28;20046;-81
2020/12/25 08:28:32;;;;;;;11.38;4.70;;;4.40;96.80;;;;;;5075937;28;20039;-80
2020/12/25 08:31:12;;;;;;;8.23;4.50;;;4.50;96.80;;;;;;5092034;28;20028;-79
2020/12/25 08:33:37;;;;;;;9.50;4.40;;;4.50;96.80;;;;;;5093606;28;20095;-79
2020/12/25 08:36:11;;;;;;;9.40;4.68;;;4.50;96.80;;;;;;5076038;28;20052;-81
2020/12/25 08:38:41;;;;;;;11.82;4.07;;;4.60;96.80;;;;;;5091230;28;20626;-81
2020/12/25 08:41:06;;;;;;;12.80;3.90;;;4.60;96.70;;;;;;5092207;28;20042;-80
2020/12/25 08:43:32;;;;;;;10.43;3.65;;;4.60;96.80;;;;;;5075726;28;20119;-80
2020/12/25 08:45:59;;;;;;;12.05;4.22;;;4.60;96.80;;;;;;5077497;28;20033;-80
2020/12/25 08:48:26;;;;;;;18.15;3.90;;;4.60;96.90;;;;;;5096882;28;20103;-79
2020/12/25 08:51:11;;;;;;;16.52;4.07;;;4.70;96.90;;;;;;5075525;28;20471;-80
2020/12/25 08:53:39;;;;;;;9.77;3.05;;;4.70;96.90;;;;;;5091089;28;20040;-81
2020/12/25 08:56:16;;;;;;;9.85;4.07;;;4.70;96.80;;;;;;5092304;28;20097;-80
2020/12/25 08:58:59;;;;;;;9.00;2.95;;;4.70;96.90;;;;;;5075718;28;20051;-81
2020/12/25 09:01:27;;;;;;;15.25;3.80;;;4.80;96.90;;;;;;5090512;28;20032;-79
2020/12/25 09:03:53;;;;;;;9.75;3.28;;;4.80;96.90;;;;;;5091538;28;20024;-79
2020/12/25 09:06:19;;;;;;;14.93;3.05;;;4.80;96.80;;;;;;5072587;28;20020;-78
2020/12/25 09:08:45;;;;;;;13.82;3.92;;;4.80;96.80;;;;;;5089137;28;20540;-79
2020/12/25 09:11:15;;;;;;;11.93;3.33;;;4.80;96.80;;;;;;5073228;28;20416;-79
2020/12/25 09:13:41;;;;;;;8.27;2.90;;;4.80;96.80;;;;;;5090206;28;20390;-79
2020/12/25 09:16:08;;;;;;;11.55;3.33;;;4.90;96.80;;;;;;5092188;28;20071;-79
2020/12/25 09:18:38;;;;;;;8.98;3.55;;;4.90;96.80;;;;;;5091510;28;20028;-79
2020/12/25 09:21:06;;;;;;;9.57;4.15;;;4.90;96.80;;;;;;5091470;28;20012;-78
2020/12/25 09:23:31;;;;;;;9.82;4.30;;;4.90;96.80;;;;;;5093483;28;20094;-78
2020/12/25 09:25:58;;;;;;;9.32;3.00;;;5.00;96.80;;;;;;5092790;28;20048;-80
2020/12/25 09:28:24;;;;;;;5.70;2.50;;;5.00;96.80;;;;;;5091202;28;20043;-81
2020/12/25 09:30:54;;;;;;;7.53;3.40;;;5.10;96.80;;;;;;5092795;28;20028;-80
2020/12/25 09:33:19;;;;;;;;;;;5.00;96.70;;;;;;5090261;28;20040;-79
2020/12/25 09:35:46;;;;;;;14.63;3.15;;;5.10;96.80;;;;;;5089015;28;19904;-81
2020/12/25 09:38:11;;;;;;;9.05;2.95;;;5.10;96.60;;;;;;5088263;28;20024;-84
2020/12/25 09:40:37;;;;;;;9.55;2.70;;;5.10;96.60;;;;;;5071182;28;20024;-80
2020/12/25 09:43:03;;;;;;;11.23;3.05;;;5.10;96.60;;;;;;5089155;28;20051;-81
2020/12/25 09:45:28;;;;;;;6.53;2.72;;;5.10;96.60;;;;;;5088225;28;20040;-79
2020/12/25 09:47:54;;;;;;;8.38;2.97;;;5.10;96.60;;;;;;5088556;28;20540;-81
2020/12/25 09:50:20;;;;;;;10.95;3.17;;;5.00;96.70;;;;;;5087731;28;20394;-81
2020/12/25 09:52:45;;;;;;;12.50;3.70;;;5.10;96.70;;;;;;5088354;28;20109;-80
2020/12/25 09:55:11;;;;;;;9.57;2.40;;;5.10;96.70;;;;;;5089134;28;20055;-82
2020/12/25 09:57:37;;;;;;;14.73;3.42;;;5.10;96.70;;;;;;5087581;28;20092;-82
2020/12/25 10:00:13;;;;;;;12.57;3.45;;;5.20;96.70;;;;;;5088174;28;20055;-81
2020/12/25 10:02:40;;;;;;;8.30;2.70;;;5.20;96.70;;;;;;5087330;28;20035;-81
2020/12/25 10:05:07;;;;;;;9.35;3.20;;;5.30;96.70;;;;;;5087514;28;20104;-82
2020/12/25 10:07:33;;;;;;;8.13;2.88;;;5.30;96.70;;;;;;5070583;28;20305;-78
2020/12/25 10:09:58;;;;;;;8.52;3.83;;;5.30;96.60;;;;;;5089239;28;20486;-81
2020/12/25 10:12:24;;;;;;;9.27;3.45;;;5.50;96.70;;;;;;5071353;28;20032;-81
2020/12/25 10:14:50;;;;;;;10.07;2.83;;;5.50;96.60;;;;;;5087850;28;20034;-83
2020/12/25 10:17:16;;;;;;;11.07;3.10;;;5.60;96.60;;;;;;5088530;28;20025;-82
2020/12/25 10:19:42;;;;;;;7.97;2.72;;;5.70;96.50;;;;;;5088761;28;20024;-83
2020/12/25 10:22:07;;;;;;;14.25;3.67;;;5.70;96.40;;;;;;5087869;28;20078;-80
2020/12/25 10:24:33;;;;;;;5.82;2.90;;;5.80;96.40;;;;;;5093791;28;20446;-80
2020/12/25 10:26:59;;;;;;;8.98;3.08;;;5.80;96.40;;;;;;5094019;28;20052;-80
2020/12/25 10:29:25;;;;;;;8.82;3.33;;;5.90;96.40;;;;;;5078371;28;20494;-82
2020/12/25 10:31:51;;;;;;;15.30;5.18;;;6.00;96.30;;;;;;5094228;28;20028;-80
2020/12/25 10:34:17;;;;;;;8.13;3.28;;;6.00;96.20;;;;;;5096510;28;20363;-80
2020/12/25 10:36:43;;;;;;;13.00;3.28;;;6.10;96.20;;;;;;5094436;28;20055;-83
2020/12/25 10:39:13;;;;;;;10.98;3.17;;;6.10;95.90;;;;;;5095197;28;20020;-82
2020/12/25 10:41:39;;;;;;;12.73;3.40;;;6.00;95.80;;;;;;5093851;28;20472;-81
2020/12/25 10:44:05;;;;;;;13.15;3.60;;;6.00;95.90;;;;;;5076935;28;20433;-81
2020/12/25 10:46:31;;;;;;;9.27;3.33;;;6.00;96.10;;;;;;5094883;28;20093;-81
2020/12/25 10:48:57;;;;;;;13.38;4.50;;;6.00;95.90;;;;;;5076586;28;20032;-82
2020/12/25 10:51:23;;;;;;;10.65;4.78;;;6.00;95.90;;;;;;5076653;28;20036;-81
2020/12/25 10:53:49;;;;;;;11.07;4.88;;;6.00;96.00;;;;;;5093246;28;20107;-80
2020/12/25 10:56:21;;;;;;;9.82;4.57;;;6.00;96.00;;;;;;5094927;28;20394;-80
2020/12/25 10:58:46;;;;;;;13.93;4.32;;;6.00;96.00;;;;;;5093863;28;20030;-80
2020/12/25 11:01:26;;;;;;;8.95;3.75;;;6.10;96.00;;;;;;5094527;28;20414;-79
2020/12/25 11:03:54;;;;;;;12.98;3.30;;;6.10;96.00;;;;;;5095002;28;20097;-81
2020/12/25 11:06:29;;;;;;;15.35;4.00;;;6.20;96.00;;;;;;5094063;28;20050;-79
2020/12/25 11:08:54;;;;;;;8.85;3.45;;;6.20;95.90;;;;;;5077645;28;20038;-80
2020/12/25 11:11:31;;;;;;;9.73;3.80;;;6.30;95.90;;;;;;5077113;28;20111;-79
2020/12/25 11:13:57;;;;;;;13.85;4.78;;;6.30;95.80;;;;;;5077963;28;20019;-80
2020/12/25 11:16:25;;;;;;;14.68;5.03;;;6.40;95.80;;;;;;5076945;28;20024;-80
2020/12/25 11:18:52;;;;;;;10.38;4.78;;;6.50;95.90;;;;;;5095251;28;20038;-79
2020/12/25 11:21:19;;;;;;;14.43;4.43;;;6.60;95.80;;;;;;5093954;28;20028;-79
2020/12/25 11:23:45;;;;;;;11.02;5.05;;;6.60;95.70;;;;;;5095283;28;20043;-79
2020/12/25 11:26:18;;;;;;;11.15;4.95;;;6.70;95.70;;;;;;5077105;28;20052;-81
2020/12/25 11:28:44;;;;;;;11.20;4.90;;;6.80;95.70;;;;;;5076350;28;20421;-82
2020/12/25 11:31:11;;;;;;;13.13;4.65;;;6.90;95.50;;;;;;5077708;28;20428;-80
2020/12/25 11:33:37;;;;;;;12.52;4.68;;;6.90;95.40;;;;;;5093594;28;20039;-82
2020/12/25 11:36:03;;;;;;;15.52;4.85;;;7.00;95.40;;;;;;5089521;28;20028;-81
2020/12/25 11:38:29;;;;;;;11.45;3.92;;;7.10;95.30;;;;;;5091296;28;20024;-81
2020/12/25 11:40:54;;;;;;;12.82;4.50;;;7.10;95.30;;;;;;5091541;28;20467;-80
2020/12/25 11:43:20;;;;;;;13.82;4.55;;;7.20;95.30;;;;;;5072849;28;20093;-82
2020/12/25 11:45:46;;;;;;;18.17;5.47;;;7.20;95.30;;;;;;5072797;28;20048;-81
2020/12/25 11:48:11;;;;;;;9.80;3.97;;;7.30;95.20;;;;;;5073053;28;20031;-79
2020/12/25 11:50:37;;;;;;;15.20;4.75;;;7.30;95.10;;;;;;5089722;28;20028;-83
2020/12/25 11:53:02;;;;;;;13.88;4.15;;;7.40;95.10;;;;;;5072733;28;20028;-81
2020/12/25 11:55:28;;;;;;;18.85;7.10;;;7.40;95.00;;;;;;5089290;28;20060;-82
2020/12/25 11:57:54;;;;;;;11.75;4.70;;;7.50;95.00;;;;;;5072665;28;20036;-81
2020/12/25 12:00:19;;;;;;;15.63;4.38;;;7.50;94.90;;;;;;5088423;28;20500;-82
2020/12/25 12:02:45;;;;;;;11.05;3.60;;;7.50;94.90;;;;;;5089967;28;20032;-81
2020/12/25 12:05:11;;;;;;;11.07;4.30;;;7.40;94.80;;;;;;5071959;28;20028;-81
2020/12/25 12:07:36;;;;;;;10.38;4.78;;;7.40;94.90;;;;;;5088809;28;20379;-82
2020/12/25 12:10:02;;;;;;;11.38;5.70;;;7.30;94.90;;;;;;5072077;28;20028;-82
2020/12/25 12:12:28;;;;;;;18.38;8.13;;;7.30;94.90;;;;;;5088761;28;20371;-79
2020/12/25 12:14:53;;;;;;;19.63;6.93;;;7.30;94.90;;;;;;5071819;28;20205;-81
2020/12/25 12:17:19;;;;;;;17.33;8.23;;;7.30;95.00;;;;;;5071388;28;20038;-81
2020/12/25 12:19:45;;;;;;;16.83;6.82;;;7.30;95.00;;;;;;5088192;28;20028;-82
2020/12/25 12:22:10;;;;;;;21.75;8.23;;;7.20;95.00;;;;;;5070812;28;20054;-80
2020/12/25 12:24:36;;;;;;;18.88;7.68;;;7.20;95.20;;;;;;5089299;28;20020;-81
2020/12/25 12:27:02;;;;;;;16.17;6.30;;;7.20;95.40;;;;;;5072332;28;20495;-83
2020/12/25 12:29:27;;;;;;;12.63;4.80;;;7.20;95.50;;;;;;5071372;28;20147;-83
2020/12/25 12:31:53;;;;;;;17.50;7.40;;;7.30;95.50;;;;;;5071859;28;20097;-81
2020/12/25 12:34:19;;;;;;;10.77;5.18;;;7.30;95.60;;;;;;5072036;28;20036;-81
2020/12/25 12:36:45;;;;;;;13.30;6.30;;;7.20;95.60;;;;;;5088376;28;20447;-84
2020/12/25 12:39:11;;;;;;;13.98;6.18;;;7.20;95.70;;;;;;5088455;28;20390;-81
2020/12/25 12:41:37;;;;;;;14.15;6.43;;;7.20;95.80;;;;;;5071224;28;20127;-81
2020/12/25 12:44:03;;;;;;;10.48;4.88;;;7.10;95.90;;;;;;5088197;28;20021;-81
2020/12/25 12:46:28;;;;;;;12.80;5.75;;;7.10;96.00;;;;;;5089708;28;20096;-81
2020/12/25 12:48:54;;;;;;;15.38;6.22;;;7.10;96.10;;;;;;5071262;28;20074;-81